< < Back
Terminal Aerodrome Forecast


Current Version              Previous Versions:   1  2  3  4  5  6  7  8  9  

Terminal Aerodrome Forecast

356
FTUS42 KILM 290449 AAC
TAFILM
TAF AMD
KILM 290449Z 2905/2924 VRB03KT P6SM BKN040 OVC120
      TEMPO 2905/2907 5SM -SHRA SCT010 OVC025
     FM291300 22006KT P6SM BKN100 PROB30 2918/2924 3SM -TSRA
      BKN030CB=

Latest METAR

361
SAUS70 KWBC 290500 RRS
MTRILM
METAR KILM 290453Z 00000KT 10SM FEW048 BKN060 BKN075 25/24 A2992 RMK AO2
LTG DSNT S AND SW SLP132 T02500239 402940217 PWINO


USA.gov is the U.S. government's official web portal to all federal, state and local government web resources and services.